Startpagina
METAR-TAF:

METAR-TAF

Vliegvelden :

Urmia Airport

Urmia, Iran

breedte: 37-32N, lengte: 045-05E, hoogte: 1297 m

Actueel weer

Dit bericht is 1 uur en het 4 minuten geleden gemaakt, om 09:00 UTC
Wind 6 kt uit het oosten
Temperatuur 30°C
Vochtigheid 25%
Druk 1007 hPa
Zicht 10 km of meer
geen wolken onder 1500 m en geen cumulonimbus

METAR: OITR 160900Z 08006KT CAVOK 30/08 Q1007

Tijdstip: 14:34 (10:04 UTC)

Verwachting

Dit bericht is 4 uur en het 19 minuten geleden gemaakt, om 05:45 UTC
Verwachting geldig van 16 om 06 UTC tot 17 om 12 UTC
Wind 8 kt uit het oosten
Zicht: 8000 m
Tijdelijke
van 16 om 09 UTC tot 16 om 14 UTC
Wind 18 kt uit het oosten
Tijdelijke
van 17 om 09 UTC tot 17 om 12 UTC
Wind 18 kt uit het oosten

TAF: OITR 160545Z 1606/1712 09008KT 8000 NSC TEMPO 1609/1614 09018KT TEMPO 1709/1712 09018KT

Waarnemingen en weersverwachtingen van meer dan 4000 vliegvelden (METAR en TAF).

De beschikbare stations zijn de gele en rode punten op de kaart.

Ga met uw muis naar het station om de naam te zien.

Klik dan om waarnemingen en weersverwachtingen te zien.

kaart wijzigen: klik op de groene knoppen met een zwart kruis om in te zoomen, op de groene knop met een streepje om uit te zoomen of op de groene pijlen voor aangrenzende kaarten.


METAR-TAF: